Time;durP1;ratioP1;P1;durP2;ratioP2;P2;SDS_P1;SDS_P2;PMS_P1;PMS_P2;Temp;Humidity;BMP_temperature;BMP_pressure;BME280_temperature;BME280_humidity;BME280_pressure;Samples;Min_cycle;Max_cycle;Signal;HPM_P1;HPM_P2
2023/03/12 00:02:21;;;;;;;5.82;4.32;;;2.00;83.20;;;;;;5064058;28;20421;-75
2023/03/12 00:04:48;;;;;;;5.60;4.90;;;2.00;83.00;;;;;;5068725;28;20720;-73
2023/03/12 00:07:15;;;;;;;7.50;4.57;;;2.00;83.40;;;;;;5066152;28;20446;-73
2023/03/12 00:09:42;;;;;;;6.72;4.40;;;2.00;83.70;;;;;;5066315;28;20838;-74
2023/03/12 00:12:09;;;;;;;6.63;4.38;;;2.00;84.50;;;;;;5059827;28;20443;-74
2023/03/12 00:14:38;;;;;;;5.65;3.85;;;2.00;84.40;;;;;;5048519;28;20421;-74
2023/03/12 00:17:05;;;;;;;4.97;4.40;;;2.00;85.10;;;;;;5048363;28;20428;-73
2023/03/12 00:19:32;;;;;;;4.60;4.20;;;2.00;85.00;;;;;;5061469;28;20505;-75
2023/03/12 00:21:59;;;;;;;4.72;4.20;;;2.00;85.70;;;;;;5060539;28;20725;-75
2023/03/12 00:24:26;;;;;;;5.60;4.65;;;2.00;86.40;;;;;;5065896;28;20446;-74
2023/03/12 00:26:52;;;;;;;5.50;4.90;;;2.00;85.70;;;;;;5060191;28;20417;-77
2023/03/12 00:29:19;;;;;;;5.15;4.65;;;1.90;85.70;;;;;;5050828;28;20436;-74
2023/03/12 00:31:47;;;;;;;6.32;5.00;;;1.90;85.50;;;;;;5060143;28;20419;-74
2023/03/12 00:34:14;;;;;;;4.70;4.20;;;1.90;85.10;;;;;;5058194;28;20443;-74
2023/03/12 00:36:41;;;;;;;6.25;5.15;;;1.90;85.00;;;;;;5064773;28;20523;-75
2023/03/12 00:39:08;;;;;;;5.40;4.50;;;1.90;85.50;;;;;;5058143;28;20421;-75
2023/03/12 00:41:34;;;;;;;5.38;4.32;;;1.90;85.00;;;;;;5084627;22;20586;31
2023/03/12 00:44:01;;;;;;;4.93;4.45;;;2.00;85.70;;;;;;5019988;28;20450;-70
2023/03/12 00:46:28;;;;;;;5.25;4.75;;;1.90;86.50;;;;;;5028910;28;20948;-71
2023/03/12 00:48:56;;;;;;;5.47;4.37;;;1.90;87.00;;;;;;5028359;28;20510;-71
2023/03/12 00:51:23;;;;;;;5.70;4.75;;;1.90;87.50;;;;;;5041090;28;20983;-71
2023/03/12 00:53:50;;;;;;;5.45;4.50;;;1.90;87.20;;;;;;5010814;28;20459;-71
2023/03/12 00:56:16;;;;;;;5.50;4.68;;;1.90;86.70;;;;;;5009329;28;20879;-71
2023/03/12 00:58:43;;;;;;;6.80;4.80;;;1.90;87.20;;;;;;5008200;28;21071;-72
2023/03/12 01:01:10;;;;;;;6.43;4.75;;;1.90;87.40;;;;;;5011539;28;20428;-71
2023/03/12 01:03:37;;;;;;;6.72;5.00;;;1.90;87.00;;;;;;5009963;28;20463;-71
2023/03/12 01:06:06;;;;;;;6.05;5.00;;;1.90;88.90;;;;;;5027171;28;20426;-70
2023/03/12 01:08:33;;;;;;;5.20;4.70;;;1.90;88.50;;;;;;5011284;28;20426;-69
2023/03/12 01:11:00;;;;;;;7.55;4.90;;;1.90;88.30;;;;;;5011704;28;20417;-71
2023/03/12 01:13:27;;;;;;;5.05;4.55;;;1.90;87.40;;;;;;5010466;28;20429;-70
2023/03/12 01:15:54;;;;;;;7.30;5.13;;;2.00;87.30;;;;;;5011587;28;20421;-70
2023/03/12 01:18:21;;;;;;;5.90;5.10;;;1.90;88.20;;;;;;5012942;28;20435;-70
2023/03/12 01:20:48;;;;;;;5.88;5.30;;;1.90;87.10;;;;;;5023032;28;20453;-70
2023/03/12 01:23:16;;;;;;;6.03;5.15;;;1.90;89.00;;;;;;5010668;28;20883;-70
2023/03/12 01:25:43;;;;;;;5.53;4.55;;;1.90;89.10;;;;;;5010517;28;20919;-71
2023/03/12 01:28:09;;;;;;;6.00;5.10;;;1.90;89.30;;;;;;5010661;28;20417;-71
2023/03/12 01:30:36;;;;;;;5.13;4.55;;;2.00;89.70;;;;;;5011100;28;20417;-70
2023/03/12 01:33:03;;;;;;;5.97;4.80;;;2.00;89.00;;;;;;5009935;28;20495;-71
2023/03/12 01:35:30;;;;;;;4.80;4.30;;;2.00;88.90;;;;;;5022394;28;20842;-71
2023/03/12 01:37:57;;;;;;;5.80;4.40;;;2.00;89.00;;;;;;5011076;28;20427;-71
2023/03/12 01:40:27;;;;;;;6.88;5.25;;;2.00;88.60;;;;;;5010557;28;20424;-71
2023/03/12 01:42:56;;;;;;;4.90;4.40;;;2.00;88.70;;;;;;5008049;28;20806;-71
2023/03/12 01:46:00;;;;;;;4.75;4.32;;;2.00;88.50;;;;;;5044278;28;20437;-71
2023/03/12 01:48:29;;;;;;;4.40;4.00;;;1.90;88.50;;;;;;5034799;28;20441;-71
2023/03/12 01:50:56;;;;;;;6.00;4.40;;;1.90;89.90;;;;;;5037069;28;20890;-71
2023/03/12 01:53:23;;;;;;;5.33;4.80;;;1.90;90.00;;;;;;5029703;28;20431;-70
2023/03/12 01:55:51;;;;;;;4.72;4.22;;;1.90;89.90;;;;;;5030470;28;20790;-69
2023/03/12 01:58:18;;;;;;;4.90;4.30;;;1.90;90.00;;;;;;5035680;28;20494;-70
2023/03/12 02:00:45;;;;;;;5.32;4.10;;;2.00;89.40;;;;;;5039488;28;20423;-70
2023/03/12 02:03:13;;;;;;;5.43;4.10;;;1.90;88.70;;;;;;5027727;28;20442;-70
2023/03/12 02:05:46;;;;;;;4.55;4.00;;;2.00;88.90;;;;;;5035636;28;20427;-70
2023/03/12 02:08:14;;;;;;;4.60;3.90;;;2.00;87.50;;;;;;5030363;28;20419;-70
2023/03/12 02:10:41;;;;;;;4.88;4.10;;;2.00;87.30;;;;;;5029262;28;20421;-71
2023/03/12 02:13:10;;;;;;;4.30;3.90;;;2.00;88.70;;;;;;5027504;28;21062;-71
2023/03/12 02:15:38;;;;;;;5.50;4.40;;;2.00;87.90;;;;;;5041814;28;20448;-71
2023/03/12 02:18:05;;;;;;;6.85;4.10;;;2.00;87.70;;;;;;5029145;28;20450;-70
2023/03/12 02:20:39;;;;;;;5.13;4.38;;;2.00;87.70;;;;;;5017626;28;20436;-70
2023/03/12 02:23:09;;;;;;;5.30;4.03;;;2.00;87.50;;;;;;5027402;28;20438;-70
2023/03/12 02:25:41;;;;;;;5.30;4.25;;;2.00;88.00;;;;;;5028035;28;20446;-70
2023/03/12 02:28:12;;;;;;;4.00;3.63;;;2.00;88.60;;;;;;5028560;28;20465;-70
2023/03/12 02:30:39;;;;;;;4.80;4.40;;;2.00;88.30;;;;;;5029687;28;20423;-70
2023/03/12 02:33:08;;;;;;;4.80;4.10;;;2.00;87.80;;;;;;5027163;28;21370;-70
2023/03/12 02:35:36;;;;;;;5.63;3.90;;;2.00;88.60;;;;;;5037442;28;20415;-70
2023/03/12 02:38:03;;;;;;;4.00;3.55;;;2.10;88.10;;;;;;5037439;28;20418;-70
2023/03/12 02:40:37;;;;;;;3.90;3.50;;;2.10;88.50;;;;;;5028580;28;20425;-70
2023/03/12 02:43:07;;;;;;;5.18;3.90;;;2.10;88.20;;;;;;5015463;28;20799;-71
2023/03/12 02:45:35;;;;;;;4.80;3.50;;;2.10;87.10;;;;;;5009597;28;20432;-70
2023/03/12 02:48:02;;;;;;;4.10;3.40;;;2.10;87.20;;;;;;5007278;28;20439;-69
2023/03/12 02:50:29;;;;;;;4.00;3.25;;;2.20;87.20;;;;;;5003564;28;20504;-71
2023/03/12 02:52:56;;;;;;;3.90;3.10;;;2.20;87.00;;;;;;5008471;28;20416;-72
2023/03/12 02:55:23;;;;;;;4.35;3.47;;;2.20;87.00;;;;;;5008609;28;20440;-71
2023/03/12 02:57:50;;;;;;;6.13;4.10;;;2.20;86.50;;;;;;5009108;28;20542;-71
2023/03/12 03:00:19;;;;;;;5.20;3.60;;;2.20;86.80;;;;;;5008778;28;20500;-72
2023/03/12 03:02:46;;;;;;;4.25;3.42;;;2.20;86.80;;;;;;5001829;28;20439;-71
2023/03/12 03:05:13;;;;;;;4.20;3.20;;;2.20;86.20;;;;;;5000478;28;20433;-70
2023/03/12 03:07:40;;;;;;;5.63;3.50;;;2.20;85.90;;;;;;5009211;28;20773;-71
2023/03/12 03:10:08;;;;;;;4.53;3.58;;;2.20;85.70;;;;;;5008374;28;20417;-70
2023/03/12 03:12:36;;;;;;;4.60;3.20;;;2.20;86.20;;;;;;5007850;28;20424;-70
2023/03/12 03:15:04;;;;;;;4.20;3.27;;;2.20;85.90;;;;;;5008894;28;20971;-71
2023/03/12 03:17:32;;;;;;;4.85;3.53;;;2.30;85.60;;;;;;5007392;28;20434;-71
2023/03/12 03:19:59;;;;;;;3.67;3.00;;;2.20;85.50;;;;;;5008385;28;20421;-71
2023/03/12 03:22:25;;;;;;;6.13;3.70;;;2.30;85.10;;;;;;5007685;28;20413;-71
2023/03/12 03:24:53;;;;;;;4.20;3.25;;;2.30;85.40;;;;;;5008649;28;20899;-71
2023/03/12 03:27:20;;;;;;;3.70;3.40;;;2.30;85.20;;;;;;5008076;28;20921;-70
2023/03/12 03:29:47;;;;;;;4.90;3.50;;;2.30;85.90;;;;;;5008247;28;20417;-70
2023/03/12 03:32:14;;;;;;;5.50;3.50;;;2.30;85.10;;;;;;5005355;28;20429;-70
2023/03/12 03:34:42;;;;;;;6.43;3.53;;;2.30;84.80;;;;;;5003632;28;20424;-71
2023/03/12 03:37:09;;;;;;;3.25;2.95;;;2.30;85.70;;;;;;5007970;28;20463;-71
2023/03/12 03:39:36;;;;;;;3.80;3.50;;;2.30;86.20;;;;;;5007793;28;20512;-71
2023/03/12 03:42:03;;;;;;;4.90;3.58;;;2.30;85.70;;;;;;5007205;28;20428;-71
2023/03/12 03:44:30;;;;;;;4.40;2.80;;;2.20;85.70;;;;;;5007564;28;20424;-71
2023/03/12 03:46:57;;;;;;;4.50;3.50;;;2.20;85.30;;;;;;5005458;28;20429;-71
2023/03/12 03:49:24;;;;;;;4.15;3.20;;;2.20;85.40;;;;;;5000660;28;20737;-71
2023/03/12 03:51:52;;;;;;;3.90;3.10;;;2.30;85.30;;;;;;5007441;28;20428;-71
2023/03/12 03:54:19;;;;;;;5.18;3.60;;;2.30;84.30;;;;;;5006943;28;20428;-70
2023/03/12 03:56:46;;;;;;;3.95;3.40;;;2.30;84.00;;;;;;5008005;28;20727;-69
2023/03/12 03:59:13;;;;;;;3.55;2.53;;;2.30;84.10;;;;;;5008550;28;20738;-69
2023/03/12 04:01:40;;;;;;;3.50;2.92;;;2.30;84.10;;;;;;5007457;28;20796;-71
2023/03/12 04:04:06;;;;;;;3.78;2.88;;;2.40;83.70;;;;;;5006167;28;20435;-72
2023/03/12 04:06:33;;;;;;;4.13;3.10;;;2.40;83.10;;;;;;5008541;28;20432;-70
2023/03/12 04:09:02;;;;;;;3.53;2.90;;;2.40;82.90;;;;;;5008149;28;20508;-70
2023/03/12 04:11:28;;;;;;;3.20;3.00;;;2.40;83.10;;;;;;5007560;28;20424;-71
2023/03/12 04:13:55;;;;;;;3.70;2.70;;;2.40;83.40;;;;;;5007282;28;20424;-71
2023/03/12 04:16:22;;;;;;;4.07;2.90;;;2.40;82.50;;;;;;5007314;28;20439;-70
2023/03/12 04:18:49;;;;;;;4.05;3.65;;;2.40;82.70;;;;;;5007533;28;20420;-70
2023/03/12 04:21:16;;;;;;;5.68;3.25;;;2.40;83.00;;;;;;5008020;28;20503;-70
2023/03/12 04:23:42;;;;;;;4.65;3.00;;;2.40;83.10;;;;;;5007608;28;20451;-71
2023/03/12 04:26:10;;;;;;;3.72;2.67;;;2.40;83.10;;;;;;5008571;28;20433;-71
2023/03/12 04:28:38;;;;;;;4.05;2.70;;;2.40;83.70;;;;;;5009333;28;20416;-71
2023/03/12 04:31:07;;;;;;;3.75;2.10;;;2.40;83.90;;;;;;5008563;28;20444;-71
2023/03/12 04:33:37;;;;;;;3.83;2.50;;;2.40;83.30;;;;;;4996325;28;20479;-71
2023/03/12 04:36:04;;;;;;;4.00;2.67;;;2.40;83.40;;;;;;5010420;28;20428;-70
2023/03/12 04:38:31;;;;;;;3.25;2.70;;;2.40;84.10;;;;;;5013394;28;20416;-71
2023/03/12 04:40:59;;;;;;;3.45;2.40;;;2.50;84.00;;;;;;5012999;28;20427;-71
2023/03/12 04:43:27;;;;;;;4.03;2.90;;;2.50;84.90;;;;;;5011010;28;20899;-71
2023/03/12 04:45:55;;;;;;;2.92;2.70;;;2.50;86.60;;;;;;5010956;28;20428;-71
2023/03/12 04:48:22;;;;;;;2.95;2.60;;;2.50;88.90;;;;;;5010891;28;20421;-71
2023/03/12 04:50:49;;;;;;;3.45;2.90;;;2.50;90.50;;;;;;5011827;28;20802;-71
2023/03/12 04:53:16;;;;;;;3.17;2.50;;;2.50;91.40;;;;;;5010449;28;20416;-71
2023/03/12 04:55:43;;;;;;;3.00;2.70;;;2.40;92.90;;;;;;5010692;28;20995;-71
2023/03/12 04:58:10;;;;;;;6.68;3.25;;;2.30;94.40;;;;;;5010791;28;20839;-69
2023/03/12 05:00:39;;;;;;;4.80;3.00;;;2.30;96.30;;;;;;5008195;28;20428;-70
2023/03/12 05:03:06;;;;;;;5.00;3.40;;;2.10;97.80;;;;;;5003896;28;20420;-69
2023/03/12 05:05:34;;;;;;;2.97;2.70;;;2.10;98.80;;;;;;5013638;28;20483;-69
2023/03/12 05:08:01;;;;;;;5.13;2.97;;;2.00;99.90;;;;;;5013079;28;20483;-69
2023/03/12 05:10:28;;;;;;;4.20;3.50;;;1.90;99.90;;;;;;5011252;28;20428;-69
2023/03/12 05:12:54;;;;;;;4.95;3.20;;;1.90;99.90;;;;;;5010567;28;20439;-71
2023/03/12 05:15:21;;;;;;;5.80;3.20;;;1.80;99.90;;;;;;5011180;28;20420;-71
2023/03/12 05:17:49;;;;;;;4.88;3.67;;;1.70;99.90;;;;;;5011541;28;20445;-70
2023/03/12 05:20:17;;;;;;;5.30;3.30;;;1.70;99.90;;;;;;5008721;28;20600;-71
2023/03/12 05:22:44;;;;;;;5.32;3.40;;;1.60;99.90;;;;;;5007709;28;20527;-71
2023/03/12 05:25:11;;;;;;;4.55;3.33;;;1.60;99.90;;;;;;5010439;28;20763;-71
2023/03/12 05:27:38;;;;;;;3.70;3.30;;;1.60;99.90;;;;;;5009279;28;20440;-71
2023/03/12 05:30:06;;;;;;;5.10;3.50;;;1.60;99.90;;;;;;5002937;28;20424;-71
2023/03/12 05:32:33;;;;;;;4.80;3.47;;;1.50;99.90;;;;;;5010052;28;20424;-71
2023/03/12 05:35:01;;;;;;;4.43;3.40;;;1.50;99.90;;;;;;5009740;28;20420;-71
2023/03/12 05:37:28;;;;;;;5.25;3.90;;;1.50;99.90;;;;;;5010894;28;20440;-71
2023/03/12 05:39:55;;;;;;;4.70;4.10;;;1.50;99.90;;;;;;5010803;28;20424;-71
2023/03/12 05:42:24;;;;;;;4.20;3.58;;;1.50;99.90;;;;;;5007647;28;20440;-71
2023/03/12 05:44:51;;;;;;;4.47;4.07;;;1.50;99.90;;;;;;5010806;28;20795;-71
2023/03/12 05:47:18;;;;;;;4.90;3.47;;;1.40;99.90;;;;;;5009755;28;20433;-71
2023/03/12 05:49:46;;;;;;;6.80;3.88;;;1.50;99.90;;;;;;5010394;28;20428;-71
2023/03/12 05:52:14;;;;;;;3.78;3.40;;;1.50;99.90;;;;;;5009700;28;20490;-72
2023/03/12 05:54:41;;;;;;;5.67;4.00;;;1.40;99.90;;;;;;5013017;28;20495;-70
2023/03/12 05:57:08;;;;;;;5.18;3.33;;;1.40;99.90;;;;;;5008002;28;20944;-71
2023/03/12 05:59:34;;;;;;;4.53;3.70;;;1.50;99.90;;;;;;5009471;28;20927;-71
2023/03/12 06:02:01;;;;;;;4.35;3.70;;;1.50;99.90;;;;;;5011737;28;20424;-71
2023/03/12 06:04:28;;;;;;;3.70;3.40;;;1.50;99.90;;;;;;5010629;28;20907;-71
2023/03/12 06:06:55;;;;;;;4.70;3.60;;;1.60;99.90;;;;;;5011517;28;20843;-71
2023/03/12 06:09:23;;;;;;;4.80;3.53;;;1.60;99.90;;;;;;5012085;28;20443;-71
2023/03/12 06:11:50;;;;;;;5.20;3.60;;;1.60;99.90;;;;;;5007337;28;20452;-71
2023/03/12 06:14:17;;;;;;;4.97;3.60;;;1.60;99.90;;;;;;5012266;28;20779;-71
2023/03/12 06:16:43;;;;;;;4.00;3.30;;;1.70;99.90;;;;;;5013415;28;20425;-71
2023/03/12 06:19:12;;;;;;;5.30;3.92;;;1.70;99.90;;;;;;5011087;28;20459;-71
2023/03/12 06:21:40;;;;;;;6.95;3.65;;;1.70;99.90;;;;;;5010430;28;20431;-71
2023/03/12 06:24:07;;;;;;;4.40;3.80;;;1.70;99.90;;;;;;5010086;28;20791;-71
2023/03/12 06:26:35;;;;;;;5.18;3.28;;;1.70;99.90;;;;;;5009150;28;20440;-71
2023/03/12 06:29:02;;;;;;;5.63;3.70;;;1.80;99.90;;;;;;5010349;28;20441;-71
2023/03/12 06:31:29;;;;;;;5.22;3.70;;;1.80;99.90;;;;;;5010145;28;20420;-71
2023/03/12 06:33:55;;;;;;;4.57;3.30;;;1.80;99.90;;;;;;5009062;28;20439;-71
2023/03/12 06:36:23;;;;;;;5.80;3.50;;;1.80;99.90;;;;;;5008079;28;20953;-72
2023/03/12 06:38:50;;;;;;;7.20;3.85;;;1.80;99.90;;;;;;5009591;28;20475;-71
2023/03/12 06:41:19;;;;;;;6.55;4.22;;;1.90;99.90;;;;;;5006910;28;20938;-71
2023/03/12 06:43:47;;;;;;;8.40;4.78;;;2.00;99.90;;;;;;5060458;22;20924;-78
2023/03/12 06:46:16;;;;;;;8.93;6.88;;;2.00;99.90;;;;;;5071266;28;20428;-77
2023/03/12 06:48:45;;;;;;;12.30;11.20;;;2.10;99.90;;;;;;5071992;28;20427;-78
2023/03/12 06:51:13;;;;;;;15.23;12.90;;;2.10;99.90;;;;;;5076412;28;20439;-77
2023/03/12 06:53:40;;;;;;;17.52;14.60;;;2.10;99.90;;;;;;5060878;28;20831;-78
2023/03/12 06:56:07;;;;;;;9.73;8.70;;;2.10;99.90;;;;;;5059177;28;20459;-79
2023/03/12 06:58:34;;;;;;;6.25;4.20;;;2.10;99.90;;;;;;5051334;28;20852;-82
2023/03/12 07:01:02;;;;;;;4.82;3.70;;;2.20;99.90;;;;;;5064393;28;20440;-80
2023/03/12 07:03:29;;;;;;;4.25;3.00;;;2.30;99.90;;;;;;5050559;28;20443;-77
2023/03/12 07:05:57;;;;;;;5.00;3.40;;;2.30;99.90;;;;;;5049813;28;20498;-77
2023/03/12 07:08:24;;;;;;;4.78;3.50;;;2.30;99.90;;;;;;5053016;28;20438;-79
2023/03/12 07:10:51;;;;;;;4.07;3.03;;;2.30;99.90;;;;;;5043446;28;20431;-79
2023/03/12 07:13:17;;;;;;;5.25;3.40;;;2.30;99.90;;;;;;5048234;28;20436;-78
2023/03/12 07:15:45;;;;;;;4.87;3.50;;;2.40;99.90;;;;;;5050682;28;20791;-77
2023/03/12 07:18:13;;;;;;;4.00;3.20;;;2.40;99.90;;;;;;5043679;28;20413;-78
2023/03/12 07:20:42;;;;;;;4.37;3.10;;;2.40;99.90;;;;;;5061641;28;20429;-77
2023/03/12 07:23:10;;;;;;;3.50;3.20;;;2.50;99.90;;;;;;5048700;28;20520;-79
2023/03/12 07:25:38;;;;;;;4.88;2.83;;;2.50;99.90;;;;;;5049815;28;20429;-77
2023/03/12 07:28:06;;;;;;;5.65;2.90;;;2.50;99.90;;;;;;5055852;28;20427;-76
2023/03/12 07:30:34;;;;;;;4.40;2.90;;;2.60;99.90;;;;;;5050417;28;20413;-78
2023/03/12 07:33:01;;;;;;;4.20;3.20;;;2.70;99.90;;;;;;5048078;28;20424;-77
2023/03/12 07:35:31;;;;;;;3.75;2.97;;;2.70;99.90;;;;;;5040942;28;20448;-76
2023/03/12 07:37:58;;;;;;;3.67;3.00;;;2.70;99.90;;;;;;5034206;28;20554;-76
2023/03/12 07:40:25;;;;;;;4.70;3.17;;;2.70;99.90;;;;;;5041113;28;20443;-76
2023/03/12 07:42:52;;;;;;;3.73;3.07;;;2.70;99.90;;;;;;5042489;28;20469;-77
2023/03/12 07:45:21;;;;;;;4.30;2.85;;;2.80;99.90;;;;;;5053792;28;20429;-76
2023/03/12 07:47:48;;;;;;;5.55;3.40;;;2.70;99.90;;;;;;5050817;28;20673;-77
2023/03/12 07:50:16;;;;;;;4.43;2.80;;;2.80;99.90;;;;;;5052932;28;20441;-78
2023/03/12 07:52:45;;;;;;;4.07;2.83;;;2.90;99.90;;;;;;5049400;28;20443;-77
2023/03/12 07:55:12;;;;;;;3.50;3.05;;;2.90;99.90;;;;;;5042630;28;20846;-77
2023/03/12 07:57:40;;;;;;;4.07;2.80;;;2.90;99.90;;;;;;5045970;28;20432;-78
2023/03/12 08:00:09;;;;;;;4.10;2.83;;;2.90;99.90;;;;;;5049248;28;20421;-78
2023/03/12 08:02:36;;;;;;;4.97;3.17;;;3.00;99.90;;;;;;5051912;28;20437;-77
2023/03/12 08:05:03;;;;;;;4.93;3.60;;;3.00;99.90;;;;;;5040915;28;20437;-78
2023/03/12 08:07:31;;;;;;;3.55;3.20;;;3.00;99.90;;;;;;5040579;28;20437;-78
2023/03/12 08:09:59;;;;;;;5.57;3.35;;;3.10;99.90;;;;;;5043697;28;20624;-77
2023/03/12 08:12:26;;;;;;;4.05;3.05;;;3.20;99.90;;;;;;5039954;28;20437;-78
2023/03/12 08:14:55;;;;;;;5.13;2.95;;;3.20;99.90;;;;;;5036993;28;20878;-78
2023/03/12 08:17:22;;;;;;;4.32;3.17;;;3.20;99.90;;;;;;5039315;28;20445;-78
2023/03/12 08:19:49;;;;;;;5.35;3.38;;;3.20;99.90;;;;;;5048235;28;20435;-78
2023/03/12 08:22:16;;;;;;;4.50;3.77;;;3.30;99.90;;;;;;5043261;28;20437;-77
2023/03/12 08:24:43;;;;;;;3.72;3.35;;;3.30;99.90;;;;;;5047460;28;20461;-78
2023/03/12 08:27:12;;;;;;;4.72;3.85;;;3.30;99.90;;;;;;5039490;28;20429;-77
2023/03/12 08:29:38;;;;;;;3.80;3.30;;;3.30;99.90;;;;;;5038237;28;20640;-78
2023/03/12 08:32:06;;;;;;;5.07;3.90;;;3.30;99.90;;;;;;5042814;28;20433;-77
2023/03/12 08:34:33;;;;;;;3.75;3.45;;;3.30;99.90;;;;;;5039071;28;20505;-76
2023/03/12 08:37:00;;;;;;;5.80;4.00;;;3.40;99.90;;;;;;5043846;28;20497;-76
2023/03/12 08:39:28;;;;;;;5.45;4.10;;;3.50;99.90;;;;;;5048876;28;20468;-75
2023/03/12 08:41:55;;;;;;;5.30;4.80;;;3.50;99.90;;;;;;5043640;28;20921;-78
2023/03/12 08:44:24;;;;;;;4.78;4.38;;;3.40;99.90;;;;;;5042501;28;20444;-77
2023/03/12 08:46:51;;;;;;;4.50;4.10;;;3.40;99.90;;;;;;5051228;28;20677;-77
2023/03/12 08:49:18;;;;;;;4.97;4.43;;;3.40;99.90;;;;;;5045118;28;20936;-77
2023/03/12 08:51:45;;;;;;;7.70;4.70;;;3.40;99.90;;;;;;5045912;28;20426;-77
2023/03/12 08:54:11;;;;;;;5.80;5.07;;;3.50;99.90;;;;;;5043871;28;20485;-78
2023/03/12 08:56:41;;;;;;;6.07;5.50;;;3.50;99.90;;;;;;5041411;28;20473;-76
2023/03/12 08:59:08;;;;;;;7.00;5.47;;;3.50;99.90;;;;;;5046144;28;20839;-76
2023/03/12 09:01:36;;;;;;;7.80;6.50;;;3.50;99.90;;;;;;5047905;28;20861;-76
2023/03/12 09:04:03;;;;;;;7.37;6.57;;;3.60;99.90;;;;;;5048679;28;20440;-76
2023/03/12 09:06:30;;;;;;;8.13;6.00;;;3.60;99.90;;;;;;5051423;28;20429;-76
2023/03/12 09:08:56;;;;;;;8.55;6.00;;;3.60;99.90;;;;;;5052481;28;20435;-77
2023/03/12 09:11:23;;;;;;;6.47;5.97;;;3.70;99.90;;;;;;5044816;28;20432;-77
2023/03/12 09:13:50;;;;;;;6.85;6.10;;;3.70;99.90;;;;;;5040989;28;20437;-76
2023/03/12 09:16:17;;;;;;;7.10;6.43;;;3.70;99.90;;;;;;5044994;28;20859;-76
2023/03/12 09:18:45;;;;;;;7.20;6.50;;;3.80;99.90;;;;;;5050161;28;20791;-76
2023/03/12 09:21:11;;;;;;;7.77;6.87;;;3.70;99.90;;;;;;5044881;28;20485;-77
2023/03/12 09:23:39;;;;;;;7.70;6.80;;;3.80;99.90;;;;;;5055653;28;20425;-76
2023/03/12 09:26:09;;;;;;;8.05;7.25;;;3.70;99.90;;;;;;5062180;28;20499;-78
2023/03/12 09:28:36;;;;;;;8.20;7.40;;;3.80;99.90;;;;;;5057199;28;20872;-78
2023/03/12 09:31:03;;;;;;;9.00;8.10;;;3.80;99.90;;;;;;5064827;28;20441;-79
2023/03/12 09:33:30;;;;;;;9.43;8.60;;;3.80;99.90;;;;;;5053939;28;20433;-78
2023/03/12 09:35:59;;;;;;;8.98;8.18;;;3.90;99.90;;;;;;5054716;28;20520;-78
2023/03/12 09:38:26;;;;;;;10.05;9.05;;;3.90;99.90;;;;;;5057179;28;20421;-78
2023/03/12 09:40:55;;;;;;;9.55;8.75;;;4.00;99.90;;;;;;5061125;28;20419;-78
2023/03/12 09:43:26;;;;;;;9.80;8.90;;;3.90;99.90;;;;;;5051532;28;20714;-78
2023/03/12 09:45:54;;;;;;;10.40;9.40;;;4.00;99.90;;;;;;5061102;28;20425;-78
2023/03/12 09:48:33;;;;;;;10.10;9.10;;;3.90;99.90;;;;;;5062347;28;20468;-78
2023/03/12 09:51:08;;;;;;;10.50;9.50;;;3.90;99.90;;;;;;5064956;28;20517;-78
2023/03/12 09:53:40;;;;;;;10.57;9.57;;;3.90;99.90;;;;;;5057275;28;20421;-78
2023/03/12 09:56:14;;;;;;;10.88;9.88;;;3.90;99.90;;;;;;5056351;28;20452;-78
2023/03/12 09:58:43;;;;;;;12.10;11.02;;;4.00;99.90;;;;;;5053233;28;20436;-78
2023/03/12 10:01:20;;;;;;;11.10;10.10;;;4.00;99.90;;;;;;5054538;28;20441;-78
2023/03/12 10:04:07;;;;;;;11.30;10.40;;;4.10;99.90;;;;;;5050584;28;20572;-79
2023/03/12 10:06:39;;;;;;;11.65;10.55;;;4.20;99.90;;;;;;5049894;28;20459;-77
2023/03/12 10:09:21;;;;;;;11.40;10.35;;;4.30;99.90;;;;;;5050566;28;20440;-77
2023/03/12 10:11:54;;;;;;;11.80;10.60;;;4.40;99.90;;;;;;5060546;28;20437;-76
2023/03/12 10:14:32;;;;;;;11.10;10.10;;;4.50;99.90;;;;;;5056393;28;20441;-76
2023/03/12 10:17:15;;;;;;;11.30;10.30;;;4.50;99.90;;;;;;5053638;28;20447;-77
2023/03/12 10:20:00;;;;;;;11.50;10.40;;;4.60;99.90;;;;;;5049166;28;20421;-76
2023/03/12 10:22:44;;;;;;;10.70;9.80;;;4.60;99.90;;;;;;5046561;28;20421;-76
2023/03/12 10:25:21;;;;;;;11.50;10.50;;;4.70;99.90;;;;;;5048895;28;20452;-76
2023/03/12 10:27:49;;;;;;;12.32;11.13;;;4.70;99.90;;;;;;5045732;28;20504;-69
2023/03/12 10:30:19;;;;;;;12.10;11.00;;;4.90;99.90;;;;;;5044368;28;20417;-76
2023/03/12 10:32:50;;;;;;;11.40;10.50;;;4.90;99.90;;;;;;5044207;28;20874;-77
2023/03/12 10:35:18;;;;;;;11.10;10.10;;;4.80;99.90;;;;;;5038119;28;20520;-76
2023/03/12 10:37:49;;;;;;;12.40;11.20;;;4.80;99.90;;;;;;5047069;28;20448;-76
2023/03/12 10:40:18;;;;;;;11.95;10.80;;;4.90;99.90;;;;;;5051313;28;20425;-81
2023/03/12 10:42:45;;;;;;;15.13;13.52;;;4.90;99.90;;;;;;5039597;28;20441;-77
2023/03/12 10:45:23;;;;;;;18.17;14.40;;;4.90;99.90;;;;;;5043423;28;20500;-80
2023/03/12 10:47:56;;;;;;;16.80;14.60;;;5.00;99.90;;;;;;5039135;28;20444;-76
2023/03/12 10:50:24;;;;;;;14.98;13.57;;;5.00;99.90;;;;;;5042673;28;20939;-73
2023/03/12 10:53:11;;;;;;;16.10;14.60;;;5.00;99.90;;;;;;5045885;28;20451;-73
2023/03/12 10:55:38;;;;;;;14.02;12.80;;;5.10;99.90;;;;;;5040372;28;20438;-73
2023/03/12 10:58:04;;;;;;;13.55;12.45;;;5.20;99.90;;;;;;5045458;28;20409;-72
2023/03/12 11:00:32;;;;;;;12.70;11.60;;;5.30;99.90;;;;;;5053182;28;20827;-73
2023/03/12 11:03:02;;;;;;;13.57;12.25;;;5.40;99.90;;;;;;5057080;28;20436;-73
2023/03/12 11:05:32;;;;;;;13.20;12.00;;;5.50;99.90;;;;;;5055297;28;20423;-74
2023/03/12 11:08:01;;;;;;;13.37;12.20;;;5.50;99.90;;;;;;5047687;28;20436;-73
2023/03/12 11:10:41;;;;;;;13.60;12.30;;;5.50;99.90;;;;;;5045165;28;20792;-74
2023/03/12 11:13:27;;;;;;;12.50;11.50;;;5.70;99.90;;;;;;5055250;28;20857;-74
2023/03/12 11:15:55;;;;;;;12.73;11.63;;;5.70;99.90;;;;;;5045589;28;20552;-74
2023/03/12 11:18:26;;;;;;;13.18;11.88;;;5.80;99.90;;;;;;5045039;28;20877;-74
2023/03/12 11:20:55;;;;;;;12.65;11.48;;;5.90;99.90;;;;;;5041067;28;20417;-77
2023/03/12 11:23:27;;;;;;;11.40;10.48;;;6.00;99.90;;;;;;5047654;28;20502;-74
2023/03/12 11:25:57;;;;;;;11.43;10.43;;;6.10;99.90;;;;;;5060502;28;20412;-75
2023/03/12 11:28:28;;;;;;;12.25;11.25;;;6.20;99.90;;;;;;5052908;28;20467;-75
2023/03/12 11:30:58;;;;;;;12.63;11.52;;;6.20;99.90;;;;;;5039157;28;20436;-74
2023/03/12 11:33:26;;;;;;;12.83;11.53;;;6.20;99.90;;;;;;5040002;28;20519;-74
2023/03/12 11:36:07;;;;;;;12.88;11.77;;;6.30;99.90;;;;;;5040777;28;20448;-75
2023/03/12 11:38:39;;;;;;;12.85;11.65;;;6.50;99.90;;;;;;5042758;28;20470;-75
2023/03/12 11:41:20;;;;;;;12.57;11.38;;;6.70;99.90;;;;;;5045731;28;20452;-75
2023/03/12 11:44:03;;;;;;;12.48;11.38;;;6.90;99.90;;;;;;5043521;28;20441;-76
2023/03/12 11:46:41;;;;;;;11.57;10.68;;;7.20;99.90;;;;;;5045126;28;20581;-76
2023/03/12 11:49:17;;;;;;;10.90;10.00;;;7.40;99.90;;;;;;5046483;28;20879;-76
2023/03/12 11:51:55;;;;;;;10.40;9.55;;;7.60;99.90;;;;;;5052256;28;20490;-76
2023/03/12 11:55:04;;;;;;;11.47;10.40;;;7.80;99.90;;;;;;5042993;28;20637;-76
2023/03/12 11:57:44;;;;;;;10.45;9.45;;;8.10;99.90;;;;;;5041475;28;20483;-76
2023/03/12 12:00:16;;;;;;;10.20;9.20;;;8.30;99.90;;;;;;5044320;28;20907;-76
2023/03/12 12:03:18;;;;;;;12.00;10.90;;;8.50;99.90;;;;;;5053309;28;20429;-77
2023/03/12 12:05:53;;;;;;;11.05;10.05;;;8.70;99.90;;;;;;5045301;28;21413;-77
2023/03/12 12:08:43;;;;;;;10.77;9.77;;;8.70;99.90;;;;;;5048540;28;20425;-77
2023/03/12 12:11:16;;;;;;;12.10;9.38;;;8.70;99.90;;;;;;5049612;28;21102;-76
2023/03/12 12:13:57;;;;;;;13.85;9.70;;;8.90;99.90;;;;;;5044110;28;20440;-77
2023/03/12 12:16:40;;;;;;;11.60;8.40;;;9.30;99.90;;;;;;5042544;28;20446;-77
2023/03/12 12:19:20;;;;;;;11.65;9.00;;;9.70;99.90;;;;;;5046095;28;21164;-77
2023/03/12 12:22:06;;;;;;;13.35;7.70;;;10.10;99.90;;;;;;5043269;28;20540;-78
2023/03/12 12:24:51;;;;;;;12.17;7.70;;;10.60;99.90;;;;;;5041013;28;21029;-78
2023/03/12 12:27:24;;;;;;;8.65;6.38;;;11.30;99.90;;;;;;5044741;28;20424;-79
2023/03/12 12:30:09;;;;;;;10.93;6.32;;;12.80;99.90;;;;;;5046289;28;20532;-77
2023/03/12 12:32:55;;;;;;;9.20;5.20;;;13.60;99.90;;;;;;5060197;28;20425;-75
2023/03/12 12:35:28;;;;;;;10.00;5.90;;;13.60;98.40;;;;;;5052290;28;20479;-80
2023/03/12 12:37:59;;;;;;;9.15;5.20;;;13.60;97.10;;;;;;5065206;28;20558;-78
2023/03/12 12:40:30;;;;;;;11.70;5.88;;;13.10;97.50;;;;;;5046432;28;20440;-79
2023/03/12 12:45:26;;;;;;;8.85;5.20;;;12.60;99.20;;;;;;5098796;22;20433;-69
2023/03/12 12:47:58;;;;;;;9.05;4.90;;;12.50;99.70;;;;;;5077228;28;20435;-69
2023/03/12 12:50:30;;;;;;;8.98;5.20;;;12.50;98.90;;;;;;5083707;28;20418;-70
2023/03/12 12:53:04;;;;;;;7.80;4.50;;;12.40;99.20;;;;;;5093151;28;20423;-70
2023/03/12 12:55:35;;;;;;;7.78;4.10;;;12.30;99.20;;;;;;5047401;28;20417;-69
2023/03/12 12:58:07;;;;;;;8.93;4.40;;;12.10;99.00;;;;;;5063888;28;20956;-70
2023/03/12 13:00:48;;;;;;;8.23;4.10;;;12.00;99.90;;;;;;5066305;28;20419;-69
2023/03/12 13:03:18;;;;;;;9.90;5.10;;;11.80;99.90;;;;;;5068536;28;20415;-69
2023/03/12 13:05:52;;;;;;;10.67;4.60;;;11.80;99.90;;;;;;5068368;28;20431;-69
2023/03/12 13:08:35;;;;;;;10.15;4.10;;;12.10;99.90;;;;;;5074265;28;21018;-69